Time;durP1;ratioP1;P1;durP2;ratioP2;P2;SDS_P1;SDS_P2;PMS_P1;PMS_P2;Temp;Humidity;BMP_temperature;BMP_pressure;BME280_temperature;BME280_humidity;BME280_pressure;Samples;Min_cycle;Max_cycle;Signal;HPM_P1;HPM_P2
2022/03/10 00:00:11;;;;;;;0.00;0.00;;;;;;;2.44;56.69;99330.06;5110100;28;20303;-60
2022/03/10 00:02:42;;;;;;;0.00;0.00;;;;;;;2.41;57.13;99329.41;5109544;28;20194;-60
2022/03/10 00:05:11;;;;;;;0.00;0.00;;;;;;;2.33;57.49;99329.78;5109874;28;20269;-60
2022/03/10 00:07:38;;;;;;;0.00;0.00;;;;;;;2.20;57.81;99327.03;5112564;28;20293;-60
2022/03/10 00:10:06;;;;;;;0.00;0.00;;;;;;;2.19;58.38;99326.19;5113515;28;20201;-60
2022/03/10 00:12:33;;;;;;;0.00;0.00;;;;;;;2.09;58.41;99337.91;5113847;28;20189;-60
2022/03/10 00:15:02;;;;;;;0.00;0.00;;;;;;;2.13;58.86;99336.00;5113544;28;20182;-60
2022/03/10 00:17:29;;;;;;;0.00;0.00;;;;;;;2.02;59.09;99334.00;5113712;28;20271;-60
2022/03/10 00:19:56;;;;;;;0.00;0.00;;;;;;;2.09;59.17;99335.34;5113883;28;20201;-60
2022/03/10 00:22:23;;;;;;;0.00;0.00;;;;;;;2.04;59.09;99338.13;5112959;28;20224;-60
2022/03/10 00:24:49;;;;;;;0.00;0.00;;;;;;;1.93;59.41;99332.69;5109509;28;20196;-60
2022/03/10 00:27:16;;;;;;;0.00;0.00;;;;;;;1.81;59.61;99347.03;5107955;28;20193;-60
2022/03/10 00:29:42;;;;;;;0.00;0.00;;;;;;;1.83;60.07;99342.66;5095246;28;20270;-60
2022/03/10 00:32:11;;;;;;;0.00;0.00;;;;;;;1.84;60.77;99348.59;5113223;28;20181;-60
2022/03/10 00:34:38;;;;;;;0.00;0.00;;;;;;;1.79;60.67;99354.00;5112665;28;20217;-60
2022/03/10 00:37:05;;;;;;;0.00;0.00;;;;;;;1.69;61.88;99355.38;5113545;28;20673;-60
2022/03/10 00:39:32;;;;;;;0.00;0.00;;;;;;;1.52;61.44;99351.06;5113395;28;20280;-61
2022/03/10 00:41:59;;;;;;;0.00;0.00;;;;;;;1.54;62.23;99347.50;5113273;28;20224;-60
2022/03/10 00:44:26;;;;;;;0.00;0.00;;;;;;;1.66;61.57;99355.53;5112874;28;20709;-60
2022/03/10 00:46:53;;;;;;;0.00;0.00;;;;;;;1.64;62.22;99352.19;5112926;28;20190;-60
2022/03/10 00:49:21;;;;;;;0.00;0.00;;;;;;;1.61;61.74;99354.00;5113054;28;20213;-60
2022/03/10 00:51:50;;;;;;;0.00;0.00;;;;;;;1.56;61.57;99350.81;5113285;28;20232;-60
2022/03/10 00:54:17;;;;;;;0.00;0.00;;;;;;;1.58;61.53;99343.03;5112811;28;20564;-60
2022/03/10 00:56:44;;;;;;;0.00;0.00;;;;;;;1.53;61.41;99340.69;5113263;28;20188;-60
2022/03/10 00:59:11;;;;;;;0.00;0.00;;;;;;;1.46;61.84;99344.47;5112814;28;20196;-60
2022/03/10 01:01:38;;;;;;;0.00;0.00;;;;;;;1.43;62.18;99340.31;5112967;28;20224;-61
2022/03/10 01:04:05;;;;;;;0.00;0.00;;;;;;;1.35;62.77;99346.72;5112323;28;20193;-60
2022/03/10 01:06:33;;;;;;;0.00;0.00;;;;;;;1.31;64.52;99349.44;5112983;28;20183;-60
2022/03/10 01:09:00;;;;;;;0.00;0.00;;;;;;;1.26;65.25;99351.41;5112863;28;20196;-60
2022/03/10 01:11:27;;;;;;;0.00;0.00;;;;;;;1.31;64.76;99344.28;5112706;28;20246;-60
2022/03/10 01:13:53;;;;;;;0.00;0.00;;;;;;;1.23;64.28;99348.16;5112234;28;20628;-61
2022/03/10 01:16:20;;;;;;;0.00;0.00;;;;;;;1.38;66.45;99349.16;5112491;28;20185;-60
2022/03/10 01:18:48;;;;;;;0.00;0.00;;;;;;;1.29;67.37;99345.28;5112571;28;20185;-60
2022/03/10 01:21:14;;;;;;;0.00;0.00;;;;;;;1.29;65.43;99348.69;5112682;28;20279;-60
2022/03/10 01:23:42;;;;;;;0.00;0.00;;;;;;;1.17;66.07;99351.84;5111236;28;20207;-60
2022/03/10 01:26:09;;;;;;;0.00;0.00;;;;;;;1.21;66.37;99347.41;5110873;28;20220;-59
2022/03/10 01:28:36;;;;;;;0.00;0.00;;;;;;;1.12;66.05;99338.38;5111502;28;20188;-60
2022/03/10 01:31:03;;;;;;;0.00;0.00;;;;;;;1.06;65.85;99341.25;5110885;28;20193;-60
2022/03/10 01:33:30;;;;;;;0.00;0.00;;;;;;;0.99;66.00;99344.13;5112304;28;20545;-61
2022/03/10 01:35:57;;;;;;;0.00;0.00;;;;;;;0.93;65.67;99344.41;5112277;28;20187;-60
2022/03/10 01:38:24;;;;;;;0.00;0.00;;;;;;;0.96;65.94;99343.41;5113091;28;20237;-62
2022/03/10 01:40:52;;;;;;;0.00;0.00;;;;;;;1.01;66.51;99344.03;5112327;28;20231;-61
2022/03/10 01:43:19;;;;;;;0.00;0.00;;;;;;;1.17;67.36;99339.81;5112364;28;20189;-61
2022/03/10 01:45:45;;;;;;;0.00;0.00;;;;;;;1.09;67.59;99338.50;5112106;28;20188;-62
2022/03/10 01:48:12;;;;;;;0.00;0.00;;;;;;;1.11;68.11;99334.13;5112207;28;20242;-62
2022/03/10 01:50:39;;;;;;;0.00;0.00;;;;;;;1.06;67.74;99333.53;5112282;28;20235;-60
2022/03/10 01:53:06;;;;;;;0.00;0.00;;;;;;;1.20;67.05;99335.44;5112107;28;20649;-60
2022/03/10 01:55:33;;;;;;;0.00;0.00;;;;;;;1.36;66.37;99338.09;5111795;28;20539;-60
2022/03/10 01:58:01;;;;;;;0.00;0.00;;;;;;;1.20;67.09;99338.00;5112206;28;20185;-60
2022/03/10 02:00:28;;;;;;;0.00;0.00;;;;;;;1.23;67.59;99330.97;5093791;28;20216;-60
2022/03/10 02:02:55;;;;;;;0.00;0.00;;;;;;;1.27;67.58;99324.78;5110651;28;20213;-61
2022/03/10 02:05:22;;;;;;;0.00;0.00;;;;;;;1.31;67.97;99321.16;5111936;28;20817;-60
2022/03/10 02:10:35;;;;;;;0.00;0.00;;;;;;;1.40;66.16;99317.31;5111834;28;20220;-60
2022/03/10 02:13:03;;;;;;;0.00;0.00;;;;;;;1.60;65.73;99320.59;5104347;28;20182;-60
2022/03/10 02:18:16;;;;;;;0.00;0.00;;;;;;;1.60;66.53;99324.03;5110826;28;20209;-60
2022/03/10 02:20:43;;;;;;;0.00;0.00;;;;;;;1.53;66.48;99314.13;5110918;28;20676;-60
2022/03/10 02:23:12;;;;;;;0.00;0.00;;;;;;;1.59;65.56;99313.84;5110574;28;20618;-60
2022/03/10 02:25:40;;;;;;;0.00;0.00;;;;;;;1.61;65.81;99310.25;5110366;28;20192;-60
2022/03/10 02:28:07;;;;;;;0.00;0.00;;;;;;;1.44;64.62;99312.84;5110523;28;20284;-60
2022/03/10 02:30:36;;;;;;;0.00;0.00;;;;;;;1.49;66.84;99313.44;5110022;28;20210;-60
2022/03/10 02:33:04;;;;;;;0.00;0.00;;;;;;;1.59;67.40;99309.50;5110646;28;20196;-60
2022/03/10 02:35:31;;;;;;;0.00;0.00;;;;;;;1.55;66.37;99312.31;5110554;28;20198;-60
2022/03/10 02:37:58;;;;;;;0.00;0.00;;;;;;;1.42;66.29;99315.50;5110421;28;20197;-60
2022/03/10 02:40:27;;;;;;;0.00;0.00;;;;;;;1.31;66.75;99321.16;5110490;28;20207;-60
2022/03/10 02:42:54;;;;;;;0.00;0.00;;;;;;;1.27;66.71;99318.81;5110465;27;20222;-60
2022/03/10 02:45:21;;;;;;;0.00;0.00;;;;;;;1.20;67.29;99323.41;5110352;28;20182;-60
2022/03/10 02:47:48;;;;;;;0.00;0.00;;;;;;;1.19;67.95;99324.31;5104025;28;20207;-60
2022/03/10 02:50:15;;;;;;;0.00;0.00;;;;;;;1.18;68.50;99333.78;5090395;28;20282;-60
2022/03/10 02:52:43;;;;;;;0.00;0.00;;;;;;;1.20;67.70;99338.84;5090198;28;20180;-60
2022/03/10 02:55:10;;;;;;;0.00;0.00;;;;;;;1.12;68.08;99334.06;5089761;28;20203;-60
2022/03/10 02:57:38;;;;;;;0.00;0.00;;;;;;;1.12;67.81;99331.50;5090279;28;20193;-60
2022/03/10 03:00:08;;;;;;;0.00;0.00;;;;;;;0.97;68.91;99335.63;5090136;28;20281;-60
2022/03/10 03:02:34;;;;;;;0.00;0.00;;;;;;;0.86;69.26;99332.72;5089728;28;20589;-60
2022/03/10 03:05:01;;;;;;;0.00;0.00;;;;;;;0.69;69.69;99334.34;5089684;28;20186;-60
2022/03/10 03:07:28;;;;;;;0.00;0.00;;;;;;;0.60;69.87;99332.19;5090010;28;20920;-60
2022/03/10 03:09:55;;;;;;;0.00;0.00;;;;;;;0.71;69.80;99332.53;5090030;28;20209;-60
2022/03/10 03:12:22;;;;;;;0.00;0.00;;;;;;;0.69;70.37;99336.91;5089787;28;20188;-60
2022/03/10 03:14:50;;;;;;;0.00;0.00;;;;;;;0.71;69.76;99334.25;5089884;28;20672;-61
2022/03/10 03:17:16;;;;;;;0.00;0.00;;;;;;;0.58;69.74;99332.25;5090033;28;20184;-60
2022/03/10 03:19:43;;;;;;;0.00;0.00;;;;;;;0.54;69.99;99335.03;5089904;28;20257;-60
2022/03/10 03:22:10;;;;;;;0.00;0.00;;;;;;;0.52;70.07;99336.84;5089458;28;20204;-61
2022/03/10 03:24:37;;;;;;;0.00;0.00;;;;;;;0.48;69.98;99333.59;5089663;28;20182;-61
2022/03/10 03:27:04;;;;;;;0.00;0.00;;;;;;;0.67;69.24;99338.72;5089823;28;20655;-60
2022/03/10 03:29:31;;;;;;;0.00;0.00;;;;;;;0.77;68.47;99340.88;5089920;28;20257;-60
2022/03/10 03:31:59;;;;;;;0.00;0.00;;;;;;;0.76;68.22;99337.44;5089732;28;20196;-60
2022/03/10 03:34:26;;;;;;;0.00;0.00;;;;;;;0.69;67.83;99339.47;5092369;28;20191;-60
2022/03/10 03:36:53;;;;;;;0.00;0.00;;;;;;;0.55;69.26;99345.22;5109735;28;20191;-60
2022/03/10 03:39:20;;;;;;;0.00;0.00;;;;;;;0.51;69.91;99348.03;5109873;28;20257;-60
2022/03/10 03:41:47;;;;;;;0.00;0.00;;;;;;;0.42;70.37;99339.81;5112855;28;20210;-60
2022/03/10 03:44:14;;;;;;;0.00;0.00;;;;;;;0.40;70.51;99341.63;5114227;28;20188;-60
2022/03/10 03:46:42;;;;;;;0.00;0.00;;;;;;;0.35;70.32;99351.28;5112965;28;20583;-60
2022/03/10 03:49:10;;;;;;;0.00;0.00;;;;;;;0.39;70.43;99344.28;5095429;28;20192;-60
2022/03/10 03:51:38;;;;;;;0.00;0.00;;;;;;;0.44;69.50;99348.28;5093695;28;20585;-60
2022/03/10 03:54:06;;;;;;;0.00;0.00;;;;;;;0.44;69.57;99352.63;5093189;28;20195;-60
2022/03/10 03:56:32;;;;;;;0.00;0.00;;;;;;;0.32;69.87;99353.97;5093781;28;20180;-60
2022/03/10 03:58:59;;;;;;;0.00;0.00;;;;;;;0.31;70.82;99354.06;5093605;28;20237;-60
2022/03/10 04:01:26;;;;;;;0.00;0.00;;;;;;;0.53;69.92;99354.75;5093455;28;20204;-60
2022/03/10 04:03:54;;;;;;;0.00;0.00;;;;;;;0.37;69.81;99354.59;5092900;28;20244;-60
2022/03/10 04:06:22;;;;;;;0.00;0.00;;;;;;;0.28;70.29;99352.44;5093350;28;20783;-60
2022/03/10 04:08:49;;;;;;;0.00;0.00;;;;;;;0.28;70.28;99348.16;5093441;28;20203;-60
2022/03/10 04:11:16;;;;;;;0.00;0.00;;;;;;;0.33;71.50;99349.69;5093414;28;20617;-60
2022/03/10 04:13:43;;;;;;;0.00;0.00;;;;;;;0.32;70.87;99355.72;5093188;28;20183;-60
2022/03/10 04:16:10;;;;;;;0.00;0.00;;;;;;;0.25;70.93;99352.56;5092659;28;20183;-60
2022/03/10 04:18:37;;;;;;;0.00;0.00;;;;;;;0.24;71.45;99353.47;5093136;28;20586;-60
2022/03/10 04:21:03;;;;;;;0.00;0.00;;;;;;;0.32;70.19;99360.84;5093513;28;20212;-60
2022/03/10 04:23:32;;;;;;;0.00;0.00;;;;;;;0.22;70.94;99365.53;5092865;28;20214;-61
2022/03/10 04:25:59;;;;;;;0.00;0.00;;;;;;;0.29;70.81;99354.09;5092611;28;20208;-61
2022/03/10 04:28:26;;;;;;;0.00;0.00;;;;;;;0.23;71.02;99359.50;5093134;28;20204;-60
2022/03/10 04:30:53;;;;;;;0.00;0.00;;;;;;;0.18;71.25;99354.59;5092934;28;20207;-60
2022/03/10 04:33:19;;;;;;;0.00;0.00;;;;;;;0.10;71.53;99352.34;5092774;28;20192;-60
2022/03/10 04:35:46;;;;;;;0.00;0.00;;;;;;;0.10;72.38;99354.91;5092473;28;20206;-61
2022/03/10 04:38:13;;;;;;;0.00;0.00;;;;;;;0.14;71.66;99360.75;5092891;28;20200;-60
2022/03/10 04:40:41;;;;;;;0.00;0.00;;;;;;;0.10;71.90;99352.34;5092659;28;20212;-61
2022/03/10 04:43:08;;;;;;;0.00;0.00;;;;;;;0.06;71.35;99348.22;5092423;28;20208;-61
2022/03/10 04:45:35;;;;;;;0.00;0.00;;;;;;;-0.02;72.06;99346.00;5092344;28;20184;-60
2022/03/10 04:48:02;;;;;;;0.00;0.00;;;;;;;-0.02;72.44;99340.88;5092511;28;20196;-61
2022/03/10 04:50:30;;;;;;;0.00;0.00;;;;;;;-0.13;72.75;99339.69;5104077;28;20220;-60
2022/03/10 04:52:56;;;;;;;0.00;0.00;;;;;;;-0.20;72.69;99337.38;5111755;28;20218;-60
2022/03/10 04:55:23;;;;;;;0.00;0.00;;;;;;;-0.24;72.75;99343.53;5112816;28;20190;-60
2022/03/10 04:57:51;;;;;;;0.00;0.00;;;;;;;-0.26;73.18;99350.47;5112588;28;20183;-60
2022/03/10 05:00:19;;;;;;;0.00;0.00;;;;;;;-0.36;73.17;99338.91;5112725;28;20237;-60
2022/03/10 05:02:47;;;;;;;0.00;0.00;;;;;;;-0.30;73.53;99347.16;5106319;28;20219;-60
2022/03/10 05:05:14;;;;;;;0.00;0.00;;;;;;;-0.34;72.80;99348.19;5092053;28;20208;-60
2022/03/10 05:07:41;;;;;;;0.00;0.00;;;;;;;-0.40;73.22;99357.88;5092275;28;20207;-60
2022/03/10 05:10:09;;;;;;;0.00;0.00;;;;;;;-0.48;74.11;99351.34;5092201;28;20204;-61
2022/03/10 05:12:44;;;;;;;0.00;0.00;;;;;;;-0.53;74.09;99352.44;5091828;28;20186;-60
2022/03/10 05:15:13;;;;;;;0.00;0.00;;;;;;;-0.56;73.97;99360.25;5091999;28;20795;-61
2022/03/10 05:17:40;;;;;;;0.00;0.00;;;;;;;-0.63;74.96;99364.78;5091965;28;20192;-61
2022/03/10 05:20:09;;;;;;;0.00;0.00;;;;;;;-0.75;75.25;99363.56;5092269;28;20203;-60
2022/03/10 05:22:43;;;;;;;0.00;0.00;;;;;;;-0.72;74.71;99366.00;5091779;28;20208;-60
2022/03/10 05:25:10;;;;;;;0.00;0.00;;;;;;;-0.77;75.55;99375.59;5091554;28;20190;-60
2022/03/10 05:27:38;;;;;;;0.00;0.00;;;;;;;-0.79;75.59;99367.94;5091934;28;20189;-60
2022/03/10 05:30:06;;;;;;;0.00;0.00;;;;;;;-0.86;74.94;99361.38;5091866;28;20212;-61
2022/03/10 05:32:34;;;;;;;0.00;0.00;;;;;;;-0.92;74.96;99369.31;5091458;28;20179;-61
2022/03/10 05:35:03;;;;;;;0.00;0.00;;;;;;;-0.69;76.20;99365.03;5091369;28;20682;-60
2022/03/10 05:37:30;;;;;;;0.00;0.00;;;;;;;-0.75;75.79;99363.56;5091495;28;20646;-60
2022/03/10 05:39:57;;;;;;;0.00;0.00;;;;;;;-0.70;75.43;99361.63;5091569;28;20219;-60
2022/03/10 05:42:24;;;;;;;0.00;0.00;;;;;;;-0.75;76.15;99366.13;5073108;28;20219;-60
2022/03/10 05:44:51;;;;;;;0.00;0.00;;;;;;;-0.73;77.19;99369.44;5091412;28;20222;-60
2022/03/10 05:47:17;;;;;;;0.00;0.00;;;;;;;-0.70;75.75;99365.91;5091397;28;20188;-60
2022/03/10 05:49:45;;;;;;;0.00;0.00;;;;;;;-0.69;75.79;99375.28;5091332;28;20566;-61
2022/03/10 05:52:12;;;;;;;0.00;0.00;;;;;;;-0.78;75.74;99379.88;5091106;28;20269;-60
2022/03/10 05:54:39;;;;;;;0.00;0.00;;;;;;;-0.77;75.90;99378.16;5090885;28;20184;-60
2022/03/10 05:57:06;;;;;;;0.00;0.00;;;;;;;-0.86;74.93;99381.06;5091516;28;20582;-60
2022/03/10 05:59:33;;;;;;;0.00;0.00;;;;;;;-0.75;75.33;99377.19;5091019;28;20210;-60
2022/03/10 06:02:00;;;;;;;0.00;0.00;;;;;;;-0.79;75.69;99380.75;5090943;28;20188;-60
2022/03/10 06:04:27;;;;;;;0.00;0.00;;;;;;;-0.71;74.49;99369.38;5089370;28;20660;-60
2022/03/10 06:06:55;;;;;;;0.00;0.00;;;;;;;-0.76;75.01;99375.53;5091061;28;20203;-60
2022/03/10 06:09:21;;;;;;;0.00;0.00;;;;;;;-0.73;75.57;99383.97;5090986;28;20206;-60
2022/03/10 06:11:48;;;;;;;0.00;0.00;;;;;;;-0.66;74.24;99376.00;5090960;28;20188;-61
2022/03/10 06:14:16;;;;;;;0.00;0.00;;;;;;;-0.71;74.56;99375.34;5090581;28;20176;-61
2022/03/10 06:16:43;;;;;;;0.00;0.00;;;;;;;-0.72;74.82;99371.13;5090836;28;20203;-61
2022/03/10 06:19:10;;;;;;;0.00;0.00;;;;;;;-0.71;74.64;99370.22;5091202;28;20183;-61
2022/03/10 06:21:37;;;;;;;0.00;0.00;;;;;;;-0.73;75.05;99378.84;5091219;28;20196;-61
2022/03/10 06:24:06;;;;;;;0.00;0.00;;;;;;;-0.75;74.44;99382.31;5091725;28;20308;-61
2022/03/10 06:26:33;;;;;;;0.00;0.00;;;;;;;-0.66;74.73;99373.44;5111136;28;20183;-61
2022/03/10 06:28:59;;;;;;;0.00;0.00;;;;;;;-0.64;74.67;99365.66;5110921;28;20268;-60
2022/03/10 06:31:26;;;;;;;0.00;0.00;;;;;;;-0.55;74.47;99375.56;5111014;28;20339;-61
2022/03/10 06:33:53;;;;;;;0.00;0.00;;;;;;;-0.55;74.63;99388.38;5110444;28;20330;-60
2022/03/10 06:36:22;;;;;;;0.00;0.00;;;;;;;-0.42;73.93;99386.16;5092785;28;20231;-60
2022/03/10 06:38:49;;;;;;;0.00;0.00;;;;;;;-0.40;73.33;99389.50;5110750;28;20190;-61
2022/03/10 06:41:17;;;;;;;0.00;0.00;;;;;;;-0.32;72.76;99389.19;5092170;28;20223;-61
2022/03/10 06:43:43;;;;;;;0.00;0.00;;;;;;;-0.20;73.32;99390.41;5110735;28;20204;-61
2022/03/10 06:46:10;;;;;;;0.00;0.00;;;;;;;-0.20;74.16;99395.53;5110050;28;20545;-60
2022/03/10 06:48:37;;;;;;;0.00;0.00;;;;;;;-0.15;72.88;99388.50;5097717;28;20209;-61
2022/03/10 06:51:05;;;;;;;0.00;0.00;;;;;;;-0.10;72.64;99390.88;5090246;28;20713;-60
2022/03/10 06:53:31;;;;;;;0.00;0.00;;;;;;;0.00;72.71;99389.59;5091376;28;20178;-60
2022/03/10 06:55:58;;;;;;;0.00;0.00;;;;;;;0.01;72.14;99393.81;5110291;28;20279;-61
2022/03/10 06:58:27;;;;;;;0.00;0.00;;;;;;;0.08;72.24;99389.25;5110658;28;20179;-61
2022/03/10 07:00:53;;;;;;;0.00;0.00;;;;;;;0.12;73.28;99391.63;5110193;28;20242;-64
2022/03/10 07:03:21;;;;;;;0.00;0.00;;;;;;;0.13;72.80;99395.03;5100625;28;20221;-64
2022/03/10 07:05:48;;;;;;;0.00;0.00;;;;;;;0.21;72.33;99397.25;5089596;28;20245;-64
2022/03/10 07:08:15;;;;;;;0.00;0.00;;;;;;;0.28;71.74;99403.81;5090067;28;20237;-64
2022/03/10 07:10:42;;;;;;;0.00;0.00;;;;;;;0.32;71.66;99407.09;5090215;28;20203;-64
2022/03/10 07:13:09;;;;;;;0.00;0.00;;;;;;;0.33;72.11;99409.56;5089778;28;20189;-63
2022/03/10 07:15:37;;;;;;;0.00;0.00;;;;;;;0.35;72.13;99410.34;5089135;28;20250;-63
2022/03/10 07:18:05;;;;;;;0.00;0.00;;;;;;;0.39;71.05;99411.88;5101816;28;20274;-63
2022/03/10 07:20:32;;;;;;;0.00;0.00;;;;;;;0.37;71.02;99423.94;5095218;28;20210;-65
2022/03/10 07:22:59;;;;;;;0.00;0.00;;;;;;;0.40;71.30;99426.38;5109927;28;20210;-66
2022/03/10 07:25:25;;;;;;;0.00;0.00;;;;;;;0.39;71.60;99422.16;5105675;28;20186;-65
2022/03/10 07:27:52;;;;;;;0.00;0.00;;;;;;;0.43;71.83;99423.69;5109727;28;20279;-64
2022/03/10 07:30:19;;;;;;;0.00;0.00;;;;;;;0.42;72.21;99432.28;5109787;28;20205;-65
2022/03/10 07:32:47;;;;;;;0.00;0.00;;;;;;;0.45;72.22;99428.78;5110142;28;20181;-64
2022/03/10 07:35:13;;;;;;;0.00;0.00;;;;;;;0.51;72.29;99423.38;5109783;28;20207;-64
2022/03/10 07:37:40;;;;;;;0.00;0.00;;;;;;;0.59;71.88;99420.44;5110257;28;20200;-64
2022/03/10 07:40:08;;;;;;;0.00;0.00;;;;;;;0.62;72.02;99425.44;5110185;28;20210;-64
2022/03/10 07:42:35;;;;;;;0.00;0.00;;;;;;;0.68;71.14;99426.91;5109712;28;20213;-64
2022/03/10 07:45:02;;;;;;;0.00;0.00;;;;;;;0.72;70.59;99424.16;5110023;28;20212;-65
2022/03/10 07:47:29;;;;;;;0.00;0.00;;;;;;;0.75;70.65;99430.06;5106653;28;20342;-64
2022/03/10 07:49:58;;;;;;;0.00;0.00;;;;;;;0.79;70.39;99421.31;5071547;28;20308;-64
2022/03/10 07:52:25;;;;;;;0.00;0.00;;;;;;;0.85;70.91;99428.75;5071273;28;20259;-64
2022/03/10 07:54:52;;;;;;;0.00;0.00;;;;;;;0.87;71.08;99419.22;5089321;28;20717;-63
2022/03/10 07:57:19;;;;;;;0.00;0.00;;;;;;;0.91;70.46;99430.19;5089714;28;20180;-64
2022/03/10 07:59:47;;;;;;;0.00;0.00;;;;;;;0.97;70.88;99423.03;5089690;28;20219;-63
2022/03/10 08:02:14;;;;;;;0.00;0.00;;;;;;;1.07;70.67;99420.03;5101854;28;20647;-63
2022/03/10 08:04:41;;;;;;;0.00;0.00;;;;;;;1.17;69.60;99422.13;5109642;28;20261;-64
2022/03/10 08:07:09;;;;;;;0.00;0.00;;;;;;;1.28;69.21;99416.47;5110146;28;20183;-64
2022/03/10 08:09:35;;;;;;;0.00;0.00;;;;;;;1.40;68.59;99416.78;5110599;28;20206;-64
2022/03/10 08:12:02;;;;;;;0.00;0.00;;;;;;;1.51;68.74;99417.13;5100467;28;20211;-58
2022/03/10 08:14:29;;;;;;;0.00;0.00;;;;;;;1.66;68.21;99414.72;5098238;28;20193;-59
2022/03/10 08:16:56;;;;;;;0.00;0.00;;;;;;;1.79;67.62;99405.47;5100455;28;20197;-62
2022/03/10 08:19:23;;;;;;;0.00;0.00;;;;;;;1.94;66.78;99416.75;5102216;28;20262;-63
2022/03/10 08:21:51;;;;;;;0.00;0.00;;;;;;;2.10;66.94;99422.00;5109126;28;20186;-64
2022/03/10 08:24:19;;;;;;;0.00;0.00;;;;;;;2.28;65.69;99424.53;5109294;28;20285;-65
2022/03/10 08:26:46;;;;;;;0.00;0.00;;;;;;;2.47;65.23;99422.66;5110583;28;20190;-64
2022/03/10 08:29:13;;;;;;;0.00;0.00;;;;;;;2.68;64.63;99421.63;5113661;28;20185;-65
2022/03/10 08:31:41;;;;;;;0.00;0.00;;;;;;;2.87;63.84;99419.72;5114174;28;20193;-64
2022/03/10 08:34:08;;;;;;;0.00;0.00;;;;;;;3.01;62.88;99416.44;5113724;28;20212;-65
2022/03/10 08:36:34;;;;;;;0.00;0.00;;;;;;;3.12;63.43;99418.41;5114010;28;20181;-64
2022/03/10 08:39:01;;;;;;;0.00;0.00;;;;;;;3.27;61.32;99415.91;5114129;28;20661;-65
2022/03/10 08:41:29;;;;;;;51.67;24.83;;;;;;;3.36;61.15;99408.47;5114139;28;20190;-65
2022/03/10 08:43:56;;;;;;;46.07;24.73;;;;;;;3.43;61.82;99406.41;5113466;28;20198;-65
2022/03/10 08:46:23;;;;;;;52.57;27.20;;;;;;;3.57;61.24;99404.81;5111004;28;20267;-65
2022/03/10 08:48:50;;;;;;;52.43;24.57;;;;;;;3.67;60.32;99416.28;5110445;28;20193;-66
2022/03/10 08:51:17;;;;;;;47.47;25.00;;;;;;;3.74;59.34;99409.81;5113299;28;20386;-65
2022/03/10 08:53:43;;;;;;;49.00;23.77;;;;;;;3.80;59.54;99406.06;5113699;28;20185;-66
2022/03/10 08:56:10;;;;;;;49.97;25.17;;;;;;;3.85;59.34;99404.06;5113404;28;20241;-65
2022/03/10 08:58:38;;;;;;;48.80;24.50;;;;;;;3.96;58.47;99401.69;5113822;28;20188;-66
2022/03/10 09:01:05;;;;;;;58.40;26.97;;;;;;;4.05;58.80;99404.66;5112978;28;20893;-65
2022/03/10 09:03:32;;;;;;;51.07;24.27;;;;;;;4.10;58.44;99407.78;5102434;28;20380;-66
2022/03/10 09:05:59;;;;;;;52.47;26.13;;;;;;;4.08;57.97;99392.38;5092730;28;20190;-66
2022/03/10 09:08:25;;;;;;;55.00;26.50;;;;;;;4.22;59.46;99395.88;5093274;28;20182;-67
2022/03/10 09:10:53;;;;;;;54.23;25.77;;;;;;;4.31;59.09;99392.75;5093062;28;20230;-65
2022/03/10 09:13:19;;;;;;;53.20;25.20;;;;;;;4.37;59.46;99387.22;5092885;28;20193;-66
2022/03/10 09:15:48;;;;;;;54.07;25.33;;;;;;;4.52;58.22;99388.03;5092629;28;20224;-66
2022/03/10 09:18:15;;;;;;;51.97;25.93;;;;;;;4.58;57.99;99389.44;5092750;28;20183;-66
2022/03/10 09:20:42;;;;;;;49.87;24.83;;;;;;;4.66;57.66;99382.03;5092863;28;20785;-66
2022/03/10 09:23:08;;;;;;;52.93;24.47;;;;;;;4.79;56.46;99376.09;5092449;28;20182;-66
2022/03/10 09:25:35;;;;;;;45.97;23.50;;;;;;;4.83;56.24;99378.41;5092299;28;20189;-66
2022/03/10 09:28:02;;;;;;;46.00;24.50;;;;;;;4.85;54.84;99373.13;5092535;28;20208;-67
2022/03/10 09:30:29;;;;;;;47.03;23.53;;;;;;;4.94;55.10;99369.97;5092690;28;20207;-66
2022/03/10 09:32:58;;;;;;;47.63;24.37;;;;;;;5.06;55.19;99375.28;5092357;28;20192;-67
2022/03/10 09:35:25;;;;;;;49.13;25.27;;;;;;;5.15;54.86;99365.19;5091571;28;20198;-67
2022/03/10 09:37:53;;;;;;;54.13;25.77;;;;;;;5.21;55.66;99363.16;5091866;28;20210;-66
2022/03/10 09:40:20;;;;;;;53.13;26.97;;;;;;;5.22;55.60;99359.63;5092257;28;20215;-68
2022/03/10 09:42:48;;;;;;;50.97;25.63;;;;;;;5.32;54.71;99358.09;5092429;28;20182;-66
2022/03/10 09:45:16;;;;;;;51.17;24.30;;;;;;;5.46;54.39;99355.44;5091737;28;20211;-67
2022/03/10 09:47:44;;;;;;;48.83;25.17;;;;;;;5.53;54.52;99355.88;5092002;28;20200;-65
2022/03/10 09:50:14;;;;;;;52.17;25.93;;;;;;;5.58;55.28;99352.97;5092502;28;20260;-67
2022/03/10 09:52:42;;;;;;;44.70;24.43;;;;;;;5.60;54.70;99349.38;5092232;28;20653;-65
2022/03/10 09:55:10;;;;;;;51.03;27.20;;;;;;;5.69;55.18;99350.50;5092018;28;20180;-65
2022/03/10 09:57:39;;;;;;;52.80;26.83;;;;;;;5.77;53.71;99350.03;5092222;28;20189;-68
2022/03/10 10:00:07;;;;;;;54.80;28.00;;;;;;;5.82;53.88;99347.94;5091936;28;20214;-67
2022/03/10 10:02:34;;;;;;;62.57;33.87;;;;;;;5.74;55.05;99347.63;5091931;28;20189;-65
2022/03/10 10:05:01;;;;;;;55.83;28.93;;;;;;;5.87;56.01;99342.44;5091502;28;20578;-66
2022/03/10 10:07:30;;;;;;;53.00;29.13;;;;;;;5.92;55.52;99337.78;5091951;28;20371;-65
2022/03/10 10:09:58;;;;;;;55.67;27.87;;;;;;;5.94;54.68;99342.84;5092128;28;20200;-65
2022/03/10 10:12:27;;;;;;;56.27;28.20;;;;;;;6.00;55.98;99343.31;5091746;28;20178;-61
2022/03/10 10:14:55;;;;;;;56.53;31.10;;;;;;;6.13;56.94;99345.91;5091519;28;20690;-65
2022/03/10 10:17:27;;;;;;;60.47;28.67;;;;;;;6.25;56.89;99349.44;5091651;28;20818;-65
2022/03/10 10:19:57;;;;;;;55.00;28.87;;;;;;;6.40;55.29;99338.91;5091708;28;20225;-66
2022/03/10 10:22:24;;;;;;;0.00;0.00;;;;;;;6.43;55.02;99331.75;5091339;28;20229;-64
2022/03/10 10:24:55;;;;;;;0.00;0.00;;;;;;;6.41;54.54;99335.38;5091121;28;20712;-65
2022/03/10 10:27:24;;;;;;;0.00;0.00;;;;;;;6.45;55.13;99340.25;5091682;28;20191;-65
2022/03/10 10:29:53;;;;;;;0.00;0.00;;;;;;;6.34;55.28;99328.06;5092234;28;20207;-66
2022/03/10 10:32:32;;;;;;;0.00;0.00;;;;;;;6.47;56.29;99329.78;5091560;28;20205;-65
2022/03/10 10:35:04;;;;;;;0.00;0.00;;;;;;;6.58;54.86;99334.22;5093212;28;20194;-65
2022/03/10 10:37:31;;;;;;;0.00;0.00;;;;;;;6.65;54.42;99333.66;5111791;28;20194;-65
2022/03/10 10:39:59;;;;;;;0.00;0.00;;;;;;;6.55;55.85;99324.06;5111746;28;20203;-66
2022/03/10 10:42:28;;;;;;;0.00;0.00;;;;;;;6.64;54.72;99332.00;5111499;28;20186;-64
2022/03/10 10:44:55;;;;;;;0.00;0.00;;;;;;;6.74;55.33;99327.03;5111213;28;20213;-66
2022/03/10 10:47:23;;;;;;;0.00;0.00;;;;;;;6.85;54.22;99328.84;5111255;28;20190;-65
2022/03/10 10:49:58;;;;;;;0.00;0.00;;;;;;;6.90;52.98;99318.97;5111297;28;20278;-66
2022/03/10 10:52:25;;;;;;;0.00;0.00;;;;;;;6.79;53.43;99317.13;5110359;28;20198;-66
2022/03/10 10:55:09;;;;;;;0.00;0.00;;;;;;;6.96;53.53;99324.66;5110740;28;20176;-65
2022/03/10 10:57:37;;;;;;;0.00;0.00;;;;;;;7.02;52.89;99314.63;5111540;28;20190;-65
2022/03/10 11:00:10;;;;;;;0.00;0.00;;;;;;;7.04;53.63;99309.34;5111307;28;20225;-66
2022/03/10 11:02:42;;;;;;;0.00;0.00;;;;;;;7.10;53.36;99321.88;5092571;28;20562;-66
2022/03/10 11:05:11;;;;;;;0.00;0.00;;;;;;;7.21;52.68;99310.72;5110968;28;20211;-65
2022/03/10 11:07:38;;;;;;;0.00;0.00;;;;;;;7.30;53.74;99304.84;5111370;28;20184;-66
2022/03/10 11:10:08;;;;;;;0.00;0.00;;;;;;;7.41;53.01;99304.06;5111328;28;20694;-66
2022/03/10 11:12:39;;;;;;;0.00;0.00;;;;;;;7.56;52.66;99301.25;5111274;28;20188;-66
2022/03/10 11:15:07;;;;;;;0.00;0.00;;;;;;;7.53;54.29;99294.53;5110862;28;20635;-65
2022/03/10 11:17:35;;;;;;;0.00;0.00;;;;;;;7.63;53.15;99292.88;5111237;28;20655;-65
2022/03/10 11:20:07;;;;;;;0.00;0.00;;;;;;;7.71;53.18;99292.28;5111402;28;20258;-66
2022/03/10 11:22:46;;;;;;;0.00;0.00;;;;;;;7.84;52.81;99294.81;5110977;28;20187;-64
2022/03/10 11:25:33;;;;;;;0.00;0.00;;;;;;;7.91;51.80;99283.00;5110659;28;20291;-63
2022/03/10 11:28:04;;;;;;;0.00;0.00;;;;;;;8.04;51.41;99279.44;5111235;28;20205;-64
2022/03/10 11:30:33;;;;;;;0.00;0.00;;;;;;;8.28;50.72;99282.75;5111161;28;20708;-64
2022/03/10 11:33:01;;;;;;;0.00;0.00;;;;;;;8.31;49.13;99276.47;5110865;28;20678;-64
2022/03/10 11:35:37;;;;;;;0.00;0.00;;;;;;;8.53;50.05;99275.63;5109967;28;20174;-64
2022/03/10 11:38:04;;;;;;;0.00;0.00;;;;;;;8.66;48.53;99272.88;5110286;28;20195;-64
2022/03/10 11:40:47;;;;;;;0.00;0.00;;;;;;;8.79;47.20;99262.31;5111025;28;20203;-64
2022/03/10 11:43:29;;;;;;;0.00;0.00;;;;;;;8.93;47.51;99258.59;5110770;28;20243;-64
2022/03/10 11:46:15;;;;;;;0.00;0.00;;;;;;;8.99;47.12;99247.69;5110518;28;20297;-64